Time;durP1;ratioP1;P1;durP2;ratioP2;P2;SDS_P1;SDS_P2;PMS_P1;PMS_P2;Temp;Humidity;BMP_temperature;BMP_pressure;BME280_temperature;BME280_humidity;BME280_pressure;Samples;Min_cycle;Max_cycle;Signal;HPM_P1;HPM_P2
2023/05/03 00:01:28;;;;;;;9.70;3.75;;;;;;;5.33;78.38;103197.59;6100265;19;20021;-68
2023/05/03 00:03:33;;;;;;;10.27;4.30;;;;;;;5.32;78.70;103189.72;6103747;19;20045;-68
2023/05/03 00:05:40;;;;;;;10.40;4.35;;;;;;;5.34;78.48;103191.50;6102723;19;20040;-69
2023/05/03 00:07:49;;;;;;;11.88;4.22;;;;;;;5.36;78.92;103195.03;6102191;19;20018;-68
2023/05/03 00:09:55;;;;;;;8.57;4.28;;;;;;;5.34;78.71;103190.63;6102026;19;20460;-68
2023/05/03 00:12:00;;;;;;;10.88;3.85;;;;;;;5.37;79.34;103191.59;6101306;19;20396;-68
2023/05/03 00:14:05;;;;;;;7.50;3.75;;;;;;;5.35;78.83;103187.19;6102808;19;20014;-69
2023/05/03 00:16:11;;;;;;;6.63;3.58;;;;;;;5.31;78.84;103191.44;6104104;19;20654;-68
2023/05/03 00:18:17;;;;;;;7.78;4.05;;;;;;;5.23;78.63;103198.25;6102016;19;20014;-69
2023/05/03 00:20:26;;;;;;;8.02;4.00;;;;;;;5.20;78.79;103198.19;6102380;19;20338;-70
2023/05/03 00:22:31;;;;;;;7.45;3.97;;;;;;;5.19;78.85;103189.50;6094785;19;20011;-69
2023/05/03 00:24:38;;;;;;;8.80;3.80;;;;;;;5.13;78.40;103191.09;6102291;19;20017;-69
2023/05/03 00:26:43;;;;;;;7.68;3.42;;;;;;;5.12;78.88;103190.22;6103052;19;20022;-69
2023/05/03 00:28:49;;;;;;;7.03;3.72;;;;;;;5.13;78.97;103184.16;6101997;19;20045;-68
2023/05/03 00:30:54;;;;;;;7.80;3.97;;;;;;;5.18;79.18;103184.25;6098939;19;20043;-68
2023/05/03 00:32:59;;;;;;;7.45;3.88;;;;;;;5.18;79.08;103179.91;6099544;19;20225;-68
2023/05/03 00:35:05;;;;;;;12.70;3.92;;;;;;;5.18;78.83;103181.63;6101602;19;20510;-68
2023/05/03 00:37:11;;;;;;;8.35;3.95;;;;;;;5.13;79.20;103191.09;6100076;19;20021;-68
2023/05/03 00:39:16;;;;;;;9.32;4.00;;;;;;;5.08;78.82;103191.00;6100908;19;20020;-68
2023/05/03 00:41:25;;;;;;;8.43;3.75;;;;;;;5.07;79.17;103191.84;6098826;19;20523;-68
2023/05/03 00:43:30;;;;;;;11.48;4.45;;;;;;;5.02;79.12;103189.16;6095340;19;20580;-69
2023/05/03 00:45:36;;;;;;;8.05;4.18;;;;;;;5.02;79.54;103181.34;6100136;19;20024;-69
2023/05/03 00:47:42;;;;;;;7.90;3.67;;;;;;;5.03;79.20;103190.06;6098853;19;20503;-69
2023/05/03 00:49:47;;;;;;;8.00;4.10;;;;;;;4.99;79.46;103196.03;6099573;19;20504;-68
2023/05/03 00:51:58;;;;;;;8.43;3.88;;;;;;;4.95;79.68;103189.00;6100721;19;20015;-68
2023/05/03 00:54:03;;;;;;;7.40;3.55;;;;;;;4.93;79.69;103185.50;6099223;19;20036;-68
2023/05/03 00:56:10;;;;;;;9.68;4.25;;;;;;;4.90;79.24;103186.31;6100176;19;20275;-68
2023/05/03 00:58:19;;;;;;;9.48;4.15;;;;;;;4.88;79.77;103200.16;6098629;19;20400;-68
2023/05/03 01:00:24;;;;;;;8.40;3.95;;;;;;;4.86;79.87;103197.50;6100677;19;20010;-68
2023/05/03 01:02:29;;;;;;;8.75;4.13;;;;;;;4.83;79.76;103200.91;6086693;19;20010;-69
2023/05/03 01:04:37;;;;;;;5.80;3.45;;;;;;;4.74;80.14;103195.53;6092633;19;20007;-68
2023/05/03 01:06:50;;;;;;;6.78;3.90;;;;;;;4.75;80.11;103205.09;6051525;19;20506;-68
2023/05/03 01:09:03;;;;;;;9.65;4.30;;;;;;;4.72;80.30;103197.22;6052634;19;20631;-69
2023/05/03 01:11:13;;;;;;;8.43;4.18;;;;;;;4.69;80.88;103206.69;6074040;19;20548;-68
2023/05/03 01:13:28;;;;;;;6.70;3.53;;;;;;;4.61;80.08;103198.72;6053396;19;20339;-68
2023/05/03 01:15:52;;;;;;;9.18;3.50;;;;;;;4.65;80.48;103199.66;6080342;19;20109;-68
2023/05/03 01:18:03;;;;;;;7.40;3.53;;;;;;;4.64;80.33;103193.56;6057518;19;20400;-68
2023/05/03 01:20:15;;;;;;;6.53;3.17;;;;;;;4.65;80.20;103186.63;6069603;19;20010;-68
2023/05/03 01:22:34;;;;;;;6.05;3.35;;;;;;;4.65;80.92;103187.50;6050164;19;20363;-68
2023/05/03 01:24:47;;;;;;;9.93;4.22;;;;;;;4.68;80.82;103189.28;6046282;19;20080;-68
2023/05/03 01:26:56;;;;;;;;;;;;;;;4.66;80.95;103189.28;6072709;19;20002;-68
2023/05/03 01:29:01;;;;;;;7.60;3.58;;;;;;;4.71;81.09;103189.34;6067989;19;20166;-68
2023/05/03 01:31:07;;;;;;;6.90;3.38;;;;;;;4.67;80.62;103187.53;6069849;19;20106;-67
2023/05/03 01:33:19;;;;;;;10.15;4.25;;;;;;;4.68;81.08;103184.97;6057386;19;20701;-68
2023/05/03 01:35:31;;;;;;;8.70;3.55;;;;;;;4.68;81.16;103182.34;6070380;19;20305;-68
2023/05/03 01:37:38;;;;;;;8.23;4.32;;;;;;;4.69;81.01;103176.31;6094051;19;20109;-68
2023/05/03 01:39:52;;;;;;;11.38;4.38;;;;;;;4.71;81.22;103182.41;6053165;19;20011;-68
2023/05/03 01:42:00;;;;;;;7.90;3.72;;;;;;;4.70;81.37;103175.47;6058929;19;20297;-68
2023/05/03 01:44:06;;;;;;;8.80;4.00;;;;;;;4.70;81.28;103166.78;6079757;19;20036;-68
2023/05/03 01:46:12;;;;;;;6.95;3.92;;;;;;;4.70;81.46;103166.78;6097440;19;20487;-68
2023/05/03 01:48:22;;;;;;;8.43;3.58;;;;;;;4.67;81.39;103161.50;6074200;19;20010;-68
2023/05/03 01:50:27;;;;;;;7.93;3.70;;;;;;;4.61;81.56;103162.25;6074667;19;20014;-68
2023/05/03 01:52:32;;;;;;;9.65;3.88;;;;;;;4.59;81.51;103153.53;6052740;19;20015;-68
2023/05/03 01:54:37;;;;;;;7.70;4.20;;;;;;;4.62;82.07;103144.03;6048918;19;20398;-68
2023/05/03 01:56:42;;;;;;;10.10;4.05;;;;;;;4.70;82.28;103148.53;6083400;19;20482;-68
2023/05/03 01:58:52;;;;;;;8.10;3.92;;;;;;;4.76;82.14;103136.50;6044422;19;21433;-69
2023/05/03 02:00:57;;;;;;;8.40;3.45;;;;;;;4.87;81.93;103130.63;6045177;19;20006;-69
2023/05/03 02:03:02;;;;;;;11.70;4.00;;;;;;;4.76;81.98;103123.47;6045614;19;20218;-69
2023/05/03 02:05:08;;;;;;;7.80;3.50;;;;;;;4.82;82.10;103112.34;6043582;19;20387;-69
2023/05/03 02:07:13;;;;;;;9.38;3.83;;;;;;;4.79;82.27;103109.66;6045727;19;20006;-70
2023/05/03 02:09:19;;;;;;;8.95;3.42;;;;;;;4.73;82.10;103104.31;6042724;19;20007;-69
2023/05/03 02:11:24;;;;;;;7.55;3.90;;;;;;;4.75;81.84;103113.94;6045655;19;20516;-69
2023/05/03 02:13:30;;;;;;;8.15;3.63;;;;;;;4.80;82.14;103121.84;6047133;19;20051;-70
2023/05/03 02:15:37;;;;;;;9.85;3.75;;;;;;;4.81;82.02;103118.38;6051218;19;20575;-70
2023/05/03 02:17:46;;;;;;;7.85;3.78;;;;;;;4.81;82.05;103128.78;6052870;19;20014;-71
2023/05/03 02:19:51;;;;;;;9.40;3.53;;;;;;;4.81;82.48;103134.88;6048184;19;20014;-69
2023/05/03 02:21:58;;;;;;;8.65;4.03;;;;;;;4.81;82.25;103128.78;6048494;19;20284;-70
2023/05/03 02:24:03;;;;;;;8.25;3.58;;;;;;;4.85;81.89;103135.84;6050973;19;20417;-70
2023/05/03 02:26:09;;;;;;;7.07;3.85;;;;;;;4.84;82.12;103137.56;6051137;19;20472;-70
2023/05/03 02:28:14;;;;;;;8.18;3.88;;;;;;;4.84;82.29;103140.19;6049254;19;20013;-70
2023/05/03 02:30:20;;;;;;;6.75;3.40;;;;;;;4.89;82.24;103141.97;6045710;19;20535;-70
2023/05/03 02:32:28;;;;;;;7.38;3.78;;;;;;;4.92;82.09;103142.91;6050780;19;20309;-70
2023/05/03 02:34:35;;;;;;;8.23;3.85;;;;;;;4.91;82.27;103153.31;6052608;19;20018;-70
2023/05/03 02:36:40;;;;;;;7.57;3.53;;;;;;;4.89;82.51;103160.22;6054586;19;20406;-70
2023/05/03 02:38:45;;;;;;;9.63;3.97;;;;;;;4.90;81.96;103159.34;6057680;19;20421;-71
2023/05/03 02:40:51;;;;;;;7.13;3.88;;;;;;;4.91;82.01;103161.13;6059925;19;20451;-70
2023/05/03 02:42:57;;;;;;;7.65;4.00;;;;;;;4.86;82.14;103158.44;6058934;19;20324;-69
2023/05/03 02:45:02;;;;;;;7.63;3.70;;;;;;;4.87;82.04;103156.69;6058133;19;20477;-69
2023/05/03 02:47:07;;;;;;;8.52;3.65;;;;;;;4.89;81.93;103160.22;6055945;19;20014;-69
2023/05/03 02:49:15;;;;;;;9.25;3.67;;;;;;;4.84;82.00;103165.31;6055322;19;20262;-70
2023/05/03 02:51:20;;;;;;;8.43;3.50;;;;;;;4.78;81.86;103162.59;6054869;19;20018;-71
2023/05/03 02:53:25;;;;;;;9.05;4.13;;;;;;;4.75;82.29;103157.34;6047821;19;20258;-69
2023/05/03 02:55:30;;;;;;;11.88;3.95;;;;;;;4.74;82.45;103159.06;6053667;19;20521;-70
2023/05/03 02:57:35;;;;;;;9.63;3.90;;;;;;;4.71;82.34;103155.50;6089302;19;20006;-68
2023/05/03 02:59:41;;;;;;;8.45;3.80;;;;;;;4.71;82.77;103155.50;6085621;19;20485;-68
2023/05/03 03:01:47;;;;;;;8.50;4.10;;;;;;;4.69;82.91;103155.47;6077508;19;20680;-67
2023/05/03 03:03:53;;;;;;;9.95;3.70;;;;;;;4.66;82.63;103165.84;6079210;19;20014;-67
2023/05/03 03:06:01;;;;;;;8.45;3.35;;;;;;;4.67;82.90;103166.72;6076938;19;20002;-68
2023/05/03 03:08:07;;;;;;;7.65;3.40;;;;;;;4.71;82.28;103164.19;6054477;19;20255;-71
2023/05/03 03:10:12;;;;;;;8.90;3.88;;;;;;;4.71;82.34;103163.31;6089074;19;20561;-68
2023/05/03 03:12:18;;;;;;;6.57;3.63;;;;;;;4.67;82.39;103167.59;6070317;19;20027;-68
2023/05/03 03:14:26;;;;;;;7.43;3.42;;;;;;;4.62;82.16;103169.22;6075732;19;20473;-68
2023/05/03 03:16:31;;;;;;;6.80;4.00;;;;;;;4.60;82.55;103178.72;6062118;19;20513;-69
2023/05/03 03:18:37;;;;;;;10.40;3.88;;;;;;;4.59;82.69;103182.16;6052273;19;20006;-68
2023/05/03 03:20:42;;;;;;;8.40;3.72;;;;;;;4.59;82.87;103180.44;6073188;19;20025;-69
2023/05/03 03:22:51;;;;;;;7.57;3.58;;;;;;;4.50;82.47;103179.34;6078622;19;20587;-69
2023/05/03 03:24:56;;;;;;;8.63;3.42;;;;;;;4.50;82.85;103175.03;6089526;19;20480;-68
2023/05/03 03:27:02;;;;;;;6.95;3.67;;;;;;;4.51;82.41;103175.91;6069590;19;20010;-68
2023/05/03 03:29:08;;;;;;;7.40;4.10;;;;;;;4.47;82.89;103163.66;6079047;19;20037;-70
2023/05/03 03:31:13;;;;;;;5.22;3.45;;;;;;;4.52;82.77;103169.84;6082764;19;20041;-67
2023/05/03 03:33:19;;;;;;;7.28;4.05;;;;;;;4.53;82.53;103161.19;6074027;19;20512;-69
2023/05/03 03:35:28;;;;;;;7.30;3.60;;;;;;;4.52;82.50;103165.50;6082039;19;20428;-68
2023/05/03 03:37:33;;;;;;;8.80;3.70;;;;;;;4.56;82.00;103166.47;6076587;19;20010;-68
2023/05/03 03:39:41;;;;;;;6.85;3.45;;;;;;;4.55;81.73;103167.31;6094706;19;20059;-67
2023/05/03 03:41:46;;;;;;;7.72;3.25;;;;;;;4.53;81.86;103172.50;6096039;19;20417;-68
2023/05/03 03:43:51;;;;;;;9.65;3.85;;;;;;;4.46;81.60;103177.53;6080883;19;20316;-70
2023/05/03 03:45:56;;;;;;;6.68;3.65;;;;;;;4.38;81.71;103178.22;6091358;19;20006;-69
2023/05/03 03:48:01;;;;;;;6.75;3.83;;;;;;;4.36;81.67;103176.44;6071227;19;20654;-67
2023/05/03 03:50:07;;;;;;;8.40;3.58;;;;;;;4.33;81.75;103186.78;6078271;19;20027;-70
2023/05/03 03:52:12;;;;;;;8.88;3.80;;;;;;;4.30;81.81;103192.81;6061870;19;20337;-68
2023/05/03 03:54:17;;;;;;;9.90;4.43;;;;;;;4.18;81.95;103185.56;6055899;19;20196;-68
2023/05/03 03:56:25;;;;;;;10.55;4.50;;;;;;;4.08;81.42;103195.72;6064442;19;20009;-69
2023/05/03 03:58:30;;;;;;;10.40;4.45;;;;;;;4.05;81.90;103201.72;6068222;19;20011;-69
2023/05/03 04:00:36;;;;;;;8.27;4.00;;;;;;;4.01;82.17;103204.25;6084806;19;20032;-69
2023/05/03 04:02:41;;;;;;;7.57;3.97;;;;;;;3.94;81.95;103209.28;6088581;19;20039;-69
2023/05/03 04:04:49;;;;;;;8.45;3.78;;;;;;;3.91;82.30;103209.19;6087111;19;20262;-69
2023/05/03 04:06:54;;;;;;;7.93;4.32;;;;;;;3.81;82.16;103208.94;6074185;19;20030;-69
2023/05/03 04:08:59;;;;;;;7.55;4.32;;;;;;;3.79;82.02;103210.59;6077358;19;20017;-69
2023/05/03 04:11:04;;;;;;;9.50;3.92;;;;;;;3.77;82.48;103210.59;6067558;19;20257;-69
2023/05/03 04:13:14;;;;;;;12.23;6.50;;;;;;;3.81;83.67;103212.41;6085209;19;20006;-69
2023/05/03 04:15:22;;;;;;;9.55;4.85;;;;;;;3.80;82.85;103225.38;6098342;19;20014;-69
2023/05/03 04:17:28;;;;;;;9.73;4.65;;;;;;;3.70;82.69;103211.25;6091729;19;20050;-69
2023/05/03 04:19:33;;;;;;;9.63;4.38;;;;;;;3.68;83.19;103213.81;6066235;19;20790;-70
2023/05/03 04:21:38;;;;;;;8.00;3.67;;;;;;;3.69;83.88;103212.09;6044855;19;20258;-70
2023/05/03 04:23:43;;;;;;;8.80;3.83;;;;;;;3.72;84.43;103206.97;6043446;19;20484;-70
2023/05/03 04:25:49;;;;;;;7.32;4.05;;;;;;;3.72;84.01;103207.84;6044026;19;20471;-69
2023/05/03 04:27:54;;;;;;;10.60;4.53;;;;;;;3.73;84.34;103204.41;6037984;19;20327;-69
2023/05/03 04:30:02;;;;;;;8.40;4.82;;;;;;;3.81;85.24;103199.41;6045443;19;20475;-70
2023/05/03 04:32:08;;;;;;;6.78;3.83;;;;;;;3.86;85.30;103196.94;6041106;19;20250;-70
2023/05/03 04:34:14;;;;;;;8.20;4.05;;;;;;;3.88;84.93;103203.91;6043167;19;20015;-69
2023/05/03 04:36:24;;;;;;;8.48;4.63;;;;;;;3.96;85.78;103194.59;6040947;19;20215;-69
2023/05/03 04:38:29;;;;;;;7.05;4.03;;;;;;;3.99;84.84;103195.50;6036045;19;20443;-69
2023/05/03 04:40:34;;;;;;;8.80;4.50;;;;;;;4.01;84.81;103199.03;6039287;19;20178;-69
2023/05/03 04:42:41;;;;;;;7.30;3.90;;;;;;;4.04;85.08;103189.56;6038316;19;20053;-69
2023/05/03 04:44:46;;;;;;;8.07;4.10;;;;;;;4.07;84.74;103188.78;6036697;19;20094;-69
2023/05/03 04:46:55;;;;;;;8.20;3.60;;;;;;;4.10;84.65;103194.03;6033223;19;20014;-70
2023/05/03 04:49:00;;;;;;;8.82;4.00;;;;;;;4.13;84.82;103191.50;6035260;19;20197;-69
2023/05/03 04:51:06;;;;;;;8.30;3.97;;;;;;;4.19;84.95;103191.69;6036449;19;20044;-69
2023/05/03 04:53:12;;;;;;;7.40;3.97;;;;;;;4.25;84.72;103186.59;6032714;19;20489;-69
2023/05/03 04:55:19;;;;;;;6.53;3.95;;;;;;;4.30;84.62;103199.72;6037581;19;20085;-69
2023/05/03 04:57:24;;;;;;;10.40;4.47;;;;;;;4.37;84.42;103197.31;6036172;19;20015;-69
2023/05/03 04:59:29;;;;;;;9.77;3.92;;;;;;;4.42;83.98;103197.41;6040381;19;20355;-69
2023/05/03 05:01:34;;;;;;;10.15;4.40;;;;;;;4.48;83.99;103199.28;6042229;19;20272;-70
2023/05/03 05:03:44;;;;;;;10.43;4.40;;;;;;;4.51;83.53;103202.81;6045382;19;20203;-70
2023/05/03 05:05:50;;;;;;;10.20;4.32;;;;;;;4.59;83.53;103195.19;6051689;19;20230;-70
2023/05/03 05:07:55;;;;;;;8.52;4.13;;;;;;;4.66;83.21;103201.41;6045603;19;20441;-70
2023/05/03 05:10:00;;;;;;;6.45;3.65;;;;;;;4.72;82.89;103202.44;6042861;19;20285;-70
2023/05/03 05:12:06;;;;;;;6.60;3.67;;;;;;;4.86;82.68;103199.22;6043050;19;20583;-69
2023/05/03 05:14:12;;;;;;;9.73;4.90;;;;;;;5.06;82.04;103203.13;6044372;19;20463;-69
2023/05/03 05:16:18;;;;;;;6.78;3.70;;;;;;;5.27;81.05;103203.56;6047439;19;20193;-69
2023/05/03 05:18:26;;;;;;;9.85;3.72;;;;;;;5.53;80.64;103200.56;6045673;19;20293;-69
2023/05/03 05:20:34;;;;;;;8.32;4.15;;;;;;;5.75;79.75;103209.66;6039993;19;20074;-69
2023/05/03 05:22:41;;;;;;;8.45;3.75;;;;;;;5.92;78.93;103205.63;6049529;19;20450;-70
2023/05/03 05:24:46;;;;;;;8.20;3.83;;;;;;;6.09;78.40;103207.66;6047041;19;20382;-69
2023/05/03 05:26:53;;;;;;;9.10;4.68;;;;;;;6.30;77.81;103213.22;6051612;19;20250;-69
2023/05/03 05:28:58;;;;;;;8.13;4.18;;;;;;;6.47;76.07;103210.84;6050363;19;20051;-69
2023/05/03 05:31:03;;;;;;;9.73;4.00;;;;;;;6.63;74.82;103217.16;6049238;19;20098;-69
2023/05/03 05:33:11;;;;;;;10.65;4.18;;;;;;;6.86;74.71;103214.00;6048549;19;20235;-70
2023/05/03 05:35:18;;;;;;;7.57;3.97;;;;;;;7.13;73.99;103223.91;6049510;19;20355;-69
2023/05/03 05:37:28;;;;;;;9.55;4.22;;;;;;;7.29;72.41;103218.00;6059805;19;20025;-70
2023/05/03 05:39:33;;;;;;;9.10;4.68;;;;;;;7.54;72.32;103220.91;6066471;19;20071;-71
2023/05/03 05:41:41;;;;;;;5.18;3.53;;;;;;;7.70;70.57;103222.81;6063248;19;20296;-71
2023/05/03 05:43:47;;;;;;;7.45;3.95;;;;;;;7.79;70.27;103217.63;6057954;19;20182;-72
2023/05/03 05:45:53;;;;;;;6.57;3.58;;;;;;;8.01;70.15;103213.50;6060351;19;20056;-71
2023/05/03 05:47:58;;;;;;;6.90;3.47;;;;;;;8.26;69.60;103211.91;6059809;19;20517;-74
2023/05/03 05:50:03;;;;;;;6.38;3.55;;;;;;;8.36;68.42;103213.75;6062637;19;20477;-71
2023/05/03 05:52:22;;;;;;;8.63;3.83;;;;;;;8.45;67.01;103209.47;6060065;19;20006;-72
2023/05/03 05:54:30;;;;;;;7.07;3.30;;;;;;;8.63;66.80;103212.19;6057289;19;20006;-72
2023/05/03 05:56:35;;;;;;;9.25;3.65;;;;;;;8.85;66.53;103220.19;6055934;19;20099;-72
2023/05/03 05:58:42;;;;;;;7.80;3.22;;;;;;;8.86;65.30;103216.69;6059897;19;20549;-72
2023/05/03 06:00:49;;;;;;;5.82;3.58;;;;;;;8.67;65.25;103215.72;6061138;19;20040;-73
2023/05/03 06:02:54;;;;;;;4.60;2.85;;;;;;;8.86;64.39;103216.69;6056748;19;20622;-73
2023/05/03 06:05:00;;;;;;;7.53;2.88;;;;;;;9.20;63.73;103204.59;6058521;19;20425;-72
2023/05/03 06:07:05;;;;;;;12.18;3.60;;;;;;;9.40;63.08;103207.25;6058519;19;20062;-72
2023/05/03 06:09:10;;;;;;;6.30;3.47;;;;;;;9.47;62.35;103200.28;6053294;19;20009;-72
2023/05/03 06:11:30;;;;;;;7.32;3.15;;;;;;;9.14;61.60;103200.19;6052080;19;20231;-72
2023/05/03 06:13:37;;;;;;;4.20;2.80;;;;;;;9.16;60.79;103203.72;6057210;19;20010;-72
2023/05/03 06:15:43;;;;;;;4.53;2.92;;;;;;;9.45;61.07;103205.50;6053084;19;20322;-71
2023/05/03 06:17:49;;;;;;;5.22;2.65;;;;;;;9.39;60.62;103211.63;6052913;19;20021;-71
2023/05/03 06:19:54;;;;;;;6.88;2.85;;;;;;;9.60;60.31;103210.78;6059730;19;20035;-71
2023/05/03 06:22:00;;;;;;;5.22;2.53;;;;;;;9.56;59.65;103213.44;6055273;19;20088;-72
2023/05/03 06:24:05;;;;;;;7.53;2.50;;;;;;;9.48;58.32;103213.41;6057172;19;20013;-71
2023/05/03 06:26:11;;;;;;;8.48;2.75;;;;;;;9.68;58.36;103208.19;6054270;19;20483;-70
2023/05/03 06:28:19;;;;;;;3.30;2.20;;;;;;;9.39;57.80;103213.38;6053646;19;20530;-71
2023/05/03 06:30:27;;;;;;;4.35;2.38;;;;;;;9.88;57.82;103213.47;6053802;19;20194;-70
2023/05/03 06:32:32;;;;;;;4.25;2.75;;;;;;;9.91;57.56;103212.59;6050492;19;20062;-71
2023/05/03 06:34:38;;;;;;;6.03;2.75;;;;;;;10.19;56.91;103205.56;6052302;19;20702;-72
2023/05/03 06:36:43;;;;;;;4.97;2.38;;;;;;;10.45;56.55;103201.19;6049903;19;20524;-72
2023/05/03 06:38:49;;;;;;;4.88;2.20;;;;;;;10.23;55.48;103195.06;6055207;19;20328;-72
2023/05/03 06:40:55;;;;;;;2.72;1.92;;;;;;;10.36;55.16;103195.06;6052060;19;20529;-72
2023/05/03 06:43:00;;;;;;;6.28;2.15;;;;;;;10.16;55.21;103193.31;6056965;19;20040;-72
2023/05/03 06:45:11;;;;;;;4.13;2.30;;;;;;;9.94;55.18;103191.56;6048862;19;20010;-71
2023/05/03 06:47:19;;;;;;;3.60;2.08;;;;;;;10.20;55.48;103189.81;6050590;19;20283;-73
2023/05/03 06:49:24;;;;;;;3.00;2.20;;;;;;;10.50;55.11;103188.88;6051731;19;20006;-72
2023/05/03 06:51:31;;;;;;;6.05;2.40;;;;;;;11.09;54.75;103180.81;6048250;19;20007;-72
2023/05/03 06:53:37;;;;;;;8.40;2.70;;;;;;;11.01;53.95;103186.09;6043525;19;20722;-72
2023/05/03 06:55:45;;;;;;;4.28;2.50;;;;;;;10.90;53.32;103186.16;6049324;19;20454;-72
2023/05/03 06:57:51;;;;;;;4.65;2.40;;;;;;;10.55;53.79;103187.13;6048172;19;20021;-71
2023/05/03 06:59:56;;;;;;;5.28;2.38;;;;;;;10.67;53.22;103185.38;6047543;19;20732;-71
2023/05/03 07:02:04;;;;;;;5.47;2.47;;;;;;;10.90;53.95;103182.63;6049826;19;20011;-72
2023/05/03 07:04:09;;;;;;;5.50;2.55;;;;;;;11.17;52.37;103181.63;6050761;19;20019;-72
2023/05/03 07:06:15;;;;;;;7.75;2.92;;;;;;;10.98;52.46;103175.59;6045197;19;20006;-72
2023/05/03 07:08:20;;;;;;;3.42;2.50;;;;;;;10.78;52.59;103167.78;6050308;19;20023;-72
2023/05/03 07:10:28;;;;;;;6.10;2.42;;;;;;;10.89;52.82;103168.59;6054948;19;20332;-72
2023/05/03 07:12:35;;;;;;;3.35;2.58;;;;;;;10.62;53.09;103180.13;6047105;19;20875;-73
2023/05/03 07:14:43;;;;;;;6.38;3.05;;;;;;;10.87;53.40;103161.59;6053195;19;20358;-72
2023/05/03 07:16:49;;;;;;;7.88;3.00;;;;;;;10.96;52.97;103167.69;6047243;19;20015;-72
2023/05/03 07:18:57;;;;;;;4.75;2.25;;;;;;;10.83;53.38;103152.84;6047454;19;20297;-72
2023/05/03 07:21:04;;;;;;;4.70;2.33;;;;;;;11.55;52.69;103155.03;6048862;19;20081;-72
2023/05/03 07:23:12;;;;;;;3.72;2.53;;;;;;;11.41;52.41;103159.53;6053027;19;20021;-72
2023/05/03 07:25:18;;;;;;;5.00;2.00;;;;;;;11.55;51.40;103160.31;6053785;19;20910;-72
2023/05/03 07:27:24;;;;;;;4.03;2.17;;;;;;;11.21;51.21;103157.03;6049386;19;20082;-72
2023/05/03 07:29:30;;;;;;;5.07;2.50;;;;;;;11.56;51.56;103163.84;6048883;19;20017;-71
2023/05/03 07:31:35;;;;;;;3.78;2.03;;;;;;;11.35;51.52;103149.06;6048057;19;20014;-72
2023/05/03 07:33:40;;;;;;;6.97;3.00;;;;;;;11.30;52.07;103146.47;6044214;19;20094;-71
2023/05/03 07:35:50;;;;;;;3.83;2.38;;;;;;;11.50;51.23;103153.34;6045837;19;20275;-72
2023/05/03 07:37:56;;;;;;;4.50;2.38;;;;;;;11.65;51.39;103142.69;6043266;19;20325;-72
2023/05/03 07:40:01;;;;;;;3.90;2.40;;;;;;;11.53;51.43;103132.25;6051727;19;20439;-72
2023/05/03 07:42:07;;;;;;;5.15;2.25;;;;;;;11.84;51.16;103133.72;6050314;19;20174;-73
2023/05/03 07:44:12;;;;;;;5.18;2.30;;;;;;;11.79;50.60;103129.41;6042440;19;20673;-71
2023/05/03 07:46:17;;;;;;;6.03;2.65;;;;;;;11.70;51.79;103134.75;6045613;19;20270;-74
2023/05/03 07:48:25;;;;;;;4.75;2.38;;;;;;;11.58;51.52;103133.94;6042665;19;20847;-72
2023/05/03 07:50:30;;;;;;;5.50;2.20;;;;;;;11.86;50.67;103133.75;6038949;19;20059;-72
2023/05/03 07:52:42;;;;;;;6.88;2.50;;;;;;;12.12;49.84;103138.78;6044276;19;20010;-73
2023/05/03 07:54:47;;;;;;;7.20;2.75;;;;;;;12.35;49.89;103141.19;6045043;19;20244;-72
2023/05/03 07:56:53;;;;;;;5.28;2.35;;;;;;;12.47;48.83;103151.56;6046631;19;20197;-73
2023/05/03 07:58:59;;;;;;;5.03;2.58;;;;;;;12.64;48.88;103145.25;6048933;19;21014;-74
2023/05/03 08:01:13;;;;;;;5.82;2.20;;;;;;;12.48;48.75;103147.16;6038503;19;20250;-74
2023/05/03 08:03:19;;;;;;;5.38;2.67;;;;;;;12.56;49.05;103147.97;6053953;19;20252;-72
2023/05/03 08:05:25;;;;;;;2.90;2.17;;;;;;;12.52;48.39;103139.22;6047357;19;20183;-72
2023/05/03 08:07:30;;;;;;;4.80;2.10;;;;;;;12.55;47.58;103138.31;6045210;19;20607;-73
2023/05/03 08:09:38;;;;;;;4.32;2.10;;;;;;;12.37;47.90;103130.59;6044990;19;20406;-72
2023/05/03 08:11:43;;;;;;;3.67;2.13;;;;;;;12.67;47.97;103137.28;6048055;19;20026;-72
2023/05/03 08:13:49;;;;;;;5.60;2.33;;;;;;;12.87;47.17;103139.66;6047711;19;20490;-72
2023/05/03 08:15:54;;;;;;;5.88;2.20;;;;;;;13.01;47.23;103132.44;6048381;19;20544;-72
2023/05/03 08:17:59;;;;;;;4.38;2.10;;;;;;;12.29;47.12;103139.47;6056177;19;20031;-73
2023/05/03 08:20:07;;;;;;;3.80;2.28;;;;;;;12.54;46.68;103147.13;6049542;19;20753;-73
2023/05/03 08:22:12;;;;;;;5.57;2.00;;;;;;;12.64;46.86;103142.63;6045482;19;20409;-72
2023/05/03 08:24:17;;;;;;;3.90;2.28;;;;;;;12.62;47.11;103141.75;6046268;19;20588;-72
2023/05/03 08:26:28;;;;;;;4.03;2.00;;;;;;;12.86;46.43;103137.94;6046216;19;20593;-73
2023/05/03 08:28:33;;;;;;;4.47;2.33;;;;;;;13.03;46.15;103141.19;6052197;19;20010;-72
2023/05/03 08:30:42;;;;;;;5.43;2.80;;;;;;;13.05;46.44;103131.50;6052613;19;20044;-72
2023/05/03 08:32:47;;;;;;;5.00;2.35;;;;;;;12.94;46.04;103136.91;6047299;19;20651;-72
2023/05/03 08:34:53;;;;;;;4.20;2.17;;;;;;;13.27;45.42;103128.56;6051041;19;20094;-73
2023/05/03 08:36:59;;;;;;;6.93;2.55;;;;;;;13.25;45.74;103144.41;6044213;19;20299;-72
2023/05/03 08:39:05;;;;;;;6.10;3.08;;;;;;;13.26;46.36;103142.63;6054807;19;20016;-71
2023/05/03 08:41:21;;;;;;;4.70;2.55;;;;;;;13.69;46.00;103155.19;6049948;19;20220;-71
2023/05/03 08:43:30;;;;;;;6.53;2.72;;;;;;;13.92;45.03;103158.31;6049811;19;20007;-71
2023/05/03 08:45:35;;;;;;;8.43;2.60;;;;;;;13.67;45.46;103146.44;6045829;19;20639;-72
2023/05/03 08:47:43;;;;;;;5.40;3.00;;;;;;;13.74;46.60;103142.78;6047500;19;20182;-72
2023/05/03 08:49:49;;;;;;;7.18;3.75;;;;;;;13.78;46.55;103155.94;6047433;19;20205;-72
2023/05/03 08:51:57;;;;;;;7.75;3.08;;;;;;;14.23;45.75;103149.84;6049685;19;20186;-70
2023/05/03 08:54:02;;;;;;;5.10;2.80;;;;;;;13.90;45.70;103146.94;6041529;19;20417;-69
2023/05/03 08:56:11;;;;;;;6.40;3.13;;;;;;;14.08;45.10;103147.47;6047738;19;20449;-69
2023/05/03 08:58:16;;;;;;;6.55;2.80;;;;;;;13.36;45.35;103147.78;6045102;19;20013;-70
2023/05/03 09:00:30;;;;;;;7.88;3.55;;;;;;;13.43;46.45;103147.69;6043224;19;20032;-71
2023/05/03 09:02:37;;;;;;;8.30;2.95;;;;;;;13.74;45.43;103148.06;6045521;19;20304;-71
2023/05/03 09:04:43;;;;;;;6.15;3.25;;;;;;;13.90;45.04;103146.94;6042779;19;20018;-71
2023/05/03 09:06:48;;;;;;;5.10;2.90;;;;;;;13.65;46.40;103146.47;6039568;19;21453;-71
2023/05/03 09:08:55;;;;;;;9.50;3.38;;;;;;;13.89;44.85;103155.75;6050816;19;20205;-71
2023/05/03 09:11:00;;;;;;;7.13;3.13;;;;;;;14.05;44.74;103154.56;6043748;19;20241;-71
2023/05/03 09:13:06;;;;;;;6.25;3.45;;;;;;;14.22;43.72;103151.63;6039231;19;20181;-71
2023/05/03 09:15:25;;;;;;;6.13;2.90;;;;;;;13.78;44.65;103147.13;6039581;19;20313;-71
2023/05/03 09:17:30;;;;;;;8.30;3.08;;;;;;;13.92;44.80;103150.41;6040447;19;20391;-71
2023/05/03 09:19:51;;;;;;;6.57;3.65;;;;;;;13.75;44.99;103152.47;6040733;19;20460;-71
2023/05/03 09:22:08;;;;;;;8.52;3.65;;;;;;;14.36;44.23;103145.19;6043853;19;20680;-71
2023/05/03 09:24:15;;;;;;;8.32;3.67;;;;;;;14.17;44.73;103149.97;6045130;19;20221;-71
2023/05/03 09:26:30;;;;;;;7.72;3.17;;;;;;;14.52;43.52;103141.34;6043157;19;20516;-70
2023/05/03 09:28:43;;;;;;;7.63;3.90;;;;;;;14.24;43.83;103143.66;6039589;19;20346;-69
2023/05/03 09:31:05;;;;;;;7.30;3.55;;;;;;;14.73;43.93;103147.13;6037440;19;20110;-70
2023/05/03 09:33:10;;;;;;;10.45;3.67;;;;;;;14.63;43.46;103143.78;6049484;19;20387;-69
2023/05/03 09:35:16;;;;;;;6.75;3.67;;;;;;;14.60;43.05;103138.56;6038120;19;20010;-69
2023/05/03 09:37:38;;;;;;;10.68;3.72;;;;;;;14.45;43.05;103129.13;6035265;19;20022;-69
2023/05/03 09:39:44;;;;;;;7.78;3.60;;;;;;;14.68;43.56;103120.75;6044629;19;20506;-69
2023/05/03 09:41:50;;;;;;;5.80;3.53;;;;;;;14.34;43.41;103134.63;6044401;19;20278;-70
2023/05/03 09:43:55;;;;;;;9.65;4.10;;;;;;;14.93;42.86;103132.56;6042522;19;20183;-70
2023/05/03 09:46:15;;;;;;;9.30;4.07;;;;;;;14.44;44.08;103133.56;6043942;19;20333;-69
2023/05/03 09:48:22;;;;;;;6.60;3.88;;;;;;;14.30;42.75;103145.28;6042991;19;20771;-69
2023/05/03 09:50:30;;;;;;;10.43;4.35;;;;;;;14.66;43.14;103141.09;6044986;19;20187;-69
2023/05/03 09:52:39;;;;;;;9.00;3.97;;;;;;;14.48;43.24;103147.56;6041177;19;20239;-71
2023/05/03 09:54:45;;;;;;;7.53;3.75;;;;;;;14.26;44.21;103147.13;6046543;19;20329;-71